Aérodrome :
LOGIN :

S'inscrire | Disclaimer

   EN    FR    IT 

 










Légende :    VFR   VFR Marginal   IFR   IFR Intensif   IFR Très Intensif
Visi : 
Plafond : 
>= 8 km
>= 3000ft
5 à 8 km
1000 à 3000 ft
1500m à 5 km
500 à 1000 ft
800 à 1500m
200 à 500 ft
< 800m
< 200 ft
Symboles :   Orages  Brouillard  Fortes neiges  Fortes précipitations  Vent > 20 kt
SIGMETs :   Divers  Orages  Givrage  Turbulence  Onde Orograph.  Cendres Volcan.







- Altitude de l'aérodrome : 247 ft
- Code IATA : BLL


EKBI - Billund

DERNIER METAR :
  • 170920Z AUTO 23013KT 190V250 9999NDV OVC026/// 14/09 Q1014

METARs EXPIRÉS :
  • 170850Z AUTO 22013G23KT 9999NDV BKN033/// 14/09 Q1014
  • 170820Z AUTO 22016KT 180V250 9999NDV BKN033/// 14/09 Q1014
  • 170750Z AUTO 22012KT 9999NDV BKN032/// 13/10 Q1014
  • 170720Z AUTO 22010KT 9999NDV FEW029/// SCT033/// 13/10 Q1014
  • 170650Z AUTO 22011KT 200V260 9999NDV BKN030/// 13/09 Q1014

TAF TAF EKBI
Valide du 17 à 06h jusqu'au 18 à 06h UTC


170455Z 1706/1806 23015KT 9999 SCT025
TEMPO 1708/1722 24018G32KT
Pas de NOTAMs connus pour ce terrain.



MET'MAP, la Météo Aéronautique d'un coup d'oeil ! - Copyright ORBIFLY Décembre 2007 - Disclaimer

ORBIFLY MET'MAP TEAM :

Programmation & Développement : Alexandra Zaïnal
Conception & Développement : Baudouin d'Aumeries
Co-Programmation & Développement : Marc-Olivier Méhu
Soutien technique & logistique : Manuel Goepfert

Contact : metmap@orbifly.com




SOURCES & CREDITS :

   NOAA